Weather at Meadow STOLport

Public forecast

Using degrees Fahrenheit for public forecast. Weather courtesy of forecast.io.

Closest aviation weather report (METAR) to Meadow STOLport

Closest report is Burlington International Airport, 10.3 nm (19.1 km) W.

2024/07/25 09:54 (retrieved 16 minutes ago)

KBTV 250954Z 20006KT 10SM SCT046 BKN200 21/19 A2997 RMK AO2 SLP148 FG DSNT OBSCG MTNS E-S T02110194

Closest aviation forecast (TAF) to Meadow STOLport

Closest forecast is Burlington International Airport, 10.3 nm (19.1 km) W.

2024/07/25 06:33 (retrieved 4 hours ago)

TAF KBTV 250530Z 2506/2606 18008KT P6SM VCSH BKN035 FM251100 20008KT P6SM SCT035 FM251500 24008KT P6SM SCT050 FM252100 29011G17KT P6SM SCT050 FM260100 29007KT P6SM BKN030